createdAt,value
2018-07-26T00:02:22.949Z,90.20
2018-07-26T00:04:50.615Z,90.20
2018-07-26T00:07:18.181Z,90.40
2018-07-26T00:09:45.746Z,90.60
2018-07-26T00:12:13.701Z,90.70
2018-07-26T00:14:41.287Z,90.80
2018-07-26T00:17:09.140Z,91.00
2018-07-26T00:19:36.695Z,91.30
2018-07-26T00:22:04.745Z,91.60
2018-07-26T00:24:32.319Z,91.70
2018-07-26T00:26:59.857Z,91.80
2018-07-26T00:29:27.416Z,92.00
2018-07-26T00:31:55.005Z,92.20
2018-07-26T00:34:22.545Z,92.20
2018-07-26T00:36:50.096Z,92.30
2018-07-26T00:39:17.646Z,92.50
2018-07-26T00:41:45.192Z,92.60
2018-07-26T00:44:12.761Z,92.70
2018-07-26T00:46:40.349Z,92.90
2018-07-26T00:49:07.926Z,93.10
2018-07-26T00:51:35.484Z,93.20
2018-07-26T00:54:03.066Z,93.30
2018-07-26T00:56:30.609Z,93.20
2018-07-26T00:58:58.178Z,93.40
2018-07-26T01:01:25.745Z,93.50
2018-07-26T01:03:53.277Z,93.70
2018-07-26T01:06:20.835Z,94.20
2018-07-26T01:08:48.383Z,94.00
2018-07-26T01:11:15.946Z,94.10
2018-07-26T01:13:43.610Z,94.20
2018-07-26T01:18:38.842Z,94.30
2018-07-26T01:21:06.404Z,94.30
2018-07-26T01:23:33.968Z,94.60
2018-07-26T01:26:01.546Z,94.60
2018-07-26T01:28:29.098Z,94.60
2018-07-26T01:30:56.649Z,94.70
2018-07-26T01:33:24.198Z,94.70
2018-07-26T01:35:51.778Z,94.90
2018-07-26T01:38:19.374Z,95.00
2018-07-26T01:40:46.933Z,95.10
2018-07-26T01:43:49.764Z,95.20
2018-07-26T01:48:46.205Z,95.20
2018-07-26T01:51:13.760Z,95.30
2018-07-26T01:53:41.843Z,95.20
2018-07-26T01:56:09.934Z,95.10
2018-07-26T01:58:37.489Z,95.20
2018-07-26T02:01:06.073Z,95.20
2018-07-26T02:06:01.913Z,95.20
2018-07-26T02:08:29.661Z,95.30
2018-07-26T02:10:57.460Z,95.40
2018-07-26T02:13:25.008Z,95.50
2018-07-26T02:15:52.862Z,95.70
2018-07-26T02:18:20.442Z,95.80
2018-07-26T02:20:48.006Z,95.90
2018-07-26T02:23:15.573Z,95.90
2018-07-26T02:25:43.144Z,96.00
2018-07-26T02:28:10.796Z,95.80
2018-07-26T02:30:38.661Z,95.80
2018-07-26T02:33:06.809Z,95.80
2018-07-26T02:35:34.734Z,95.80
2018-07-26T02:38:02.575Z,95.90
2018-07-26T02:40:30.541Z,96.00
2018-07-26T02:42:58.403Z,96.10
2018-07-26T02:45:26.258Z,96.20
2018-07-26T02:47:54.105Z,96.20
2018-07-26T02:50:22.125Z,96.10
2018-07-26T02:52:50.049Z,96.10
2018-07-26T02:55:17.977Z,96.20
2018-07-26T02:57:45.855Z,96.40
2018-07-26T03:00:13.677Z,96.40
2018-07-26T03:02:41.522Z,96.40
2018-07-26T03:05:09.649Z,96.50
2018-07-26T03:07:37.679Z,96.60
2018-07-26T03:10:06.019Z,96.70
2018-07-26T03:12:33.953Z,96.70
2018-07-26T03:15:01.833Z,96.70
2018-07-26T03:17:29.722Z,96.80
2018-07-26T03:19:57.525Z,96.80
2018-07-26T03:22:25.349Z,96.80
2018-07-26T03:24:53.383Z,96.70
2018-07-26T03:27:21.368Z,96.80
2018-07-26T03:29:49.299Z,96.80
2018-07-26T03:32:17.227Z,96.80
2018-07-26T03:34:45.038Z,96.90
2018-07-26T03:37:12.869Z,97.40
2018-07-26T03:39:40.751Z,97.20
2018-07-26T03:42:08.625Z,97.20
2018-07-26T03:47:04.485Z,97.20
2018-07-26T03:49:32.362Z,97.20
2018-07-26T03:52:00.147Z,97.20
2018-07-26T03:54:28.067Z,97.20
2018-07-26T03:56:56.044Z,97.30
2018-07-26T03:59:24.066Z,97.40
2018-07-26T04:01:52.033Z,97.40
2018-07-26T04:04:19.871Z,97.40
2018-07-26T04:06:47.820Z,97.40
2018-07-26T04:09:15.728Z,97.30
2018-07-26T04:11:44.670Z,97.50
2018-07-26T04:14:12.603Z,97.70
2018-07-26T04:16:40.482Z,97.60
2018-07-26T04:19:09.406Z,97.50
2018-07-26T04:21:37.715Z,97.50
2018-07-26T04:24:05.614Z,97.50
2018-07-26T04:26:33.919Z,97.50
2018-07-26T04:29:01.840Z,97.60
2018-07-26T04:31:29.674Z,97.50
2018-07-26T04:33:57.534Z,97.50
2018-07-26T04:36:25.458Z,97.50
2018-07-26T04:38:53.385Z,97.40
2018-07-26T04:41:21.325Z,97.50
2018-07-26T04:46:17.107Z,97.80
2018-07-26T04:48:44.910Z,98.00
2018-07-26T04:51:12.822Z,97.60
2018-07-26T04:53:40.628Z,97.60
2018-07-26T04:56:08.463Z,97.70
2018-07-26T04:58:36.273Z,97.60
2018-07-26T05:01:04.138Z,97.70
2018-07-26T05:03:32.039Z,97.70
2018-07-26T05:05:59.893Z,97.60
2018-07-26T05:08:27.695Z,97.70
2018-07-26T05:10:55.508Z,96.70
2018-07-26T05:13:23.357Z,94.50
2018-07-26T05:15:51.218Z,93.40
2018-07-26T05:18:19.028Z,93.20
2018-07-26T05:20:46.866Z,91.60
2018-07-26T05:23:14.710Z,85.40
2018-07-26T05:25:42.602Z,78.10
2018-07-26T05:28:10.458Z,72.50
2018-07-26T05:30:38.338Z,68.20
2018-07-26T05:33:06.407Z,64.50
2018-07-26T05:35:34.205Z,61.30
2018-07-26T05:38:02.083Z,58.50
2018-07-26T05:40:30.050Z,56.20
2018-07-26T05:42:57.825Z,53.70
2018-07-26T05:45:25.696Z,51.80
2018-07-26T05:47:53.495Z,49.80
2018-07-26T05:50:21.277Z,47.80
2018-07-26T05:52:49.132Z,46.20
2018-07-26T05:55:16.925Z,44.90
2018-07-26T05:57:44.790Z,43.60
2018-07-26T06:00:13.565Z,42.80
2018-07-26T06:02:41.921Z,42.10
2018-07-26T06:05:09.992Z,40.10
2018-07-26T06:07:37.762Z,39.20
2018-07-26T06:10:06.710Z,38.10
2018-07-26T06:12:34.486Z,37.90
2018-07-26T06:15:02.242Z,37.40
2018-07-26T06:17:30.002Z,37.20
2018-07-26T06:22:25.590Z,35.70
2018-07-26T06:24:53.397Z,35.10
2018-07-26T06:27:21.190Z,34.80
2018-07-26T06:29:48.943Z,34.20
2018-07-26T06:32:16.713Z,33.90
2018-07-26T06:34:44.517Z,34.10
2018-07-26T06:37:12.326Z,33.90
2018-07-26T06:39:40.106Z,33.80
2018-07-26T06:42:09.362Z,33.50
2018-07-26T06:44:37.252Z,32.90
2018-07-26T06:47:05.537Z,32.90
2018-07-26T06:49:33.343Z,32.60
2018-07-26T06:52:01.145Z,32.40
2018-07-26T06:54:28.965Z,32.70
2018-07-26T06:56:56.737Z,32.70
2018-07-26T06:59:24.477Z,32.50
2018-07-26T07:01:52.269Z,32.50
2018-07-26T07:04:20.100Z,32.60
2018-07-26T07:06:47.850Z,32.70
2018-07-26T07:09:15.690Z,32.80
2018-07-26T07:11:43.576Z,32.80
2018-07-26T07:16:39.391Z,32.70
2018-07-26T07:19:07.642Z,32.80
2018-07-26T07:21:35.419Z,32.90
2018-07-26T07:24:03.203Z,33.20
2018-07-26T07:26:31.001Z,33.10
2018-07-26T07:28:58.833Z,33.20
2018-07-26T07:31:26.707Z,33.20
2018-07-26T07:33:54.589Z,33.40
2018-07-26T07:36:22.478Z,33.40
2018-07-26T07:38:50.177Z,33.50
2018-07-26T07:41:18.246Z,33.50
2018-07-26T07:43:46.046Z,33.60
2018-07-26T07:46:13.898Z,33.90
2018-07-26T07:48:41.631Z,34.00
2018-07-26T07:51:09.439Z,34.30
2018-07-26T07:53:37.233Z,34.50
2018-07-26T07:56:05.026Z,34.60
2018-07-26T07:58:32.900Z,34.90
2018-07-26T08:01:00.702Z,35.20
2018-07-26T08:03:28.577Z,35.40
2018-07-26T08:05:56.384Z,35.50
2018-07-26T08:08:24.150Z,35.50
2018-07-26T08:10:52.031Z,35.40
2018-07-26T08:13:19.769Z,35.30
2018-07-26T08:15:47.590Z,35.20
2018-07-26T08:18:15.334Z,35.30
2018-07-26T08:20:43.054Z,35.50
2018-07-26T08:23:10.822Z,35.50
2018-07-26T08:25:38.664Z,35.20
2018-07-26T08:28:06.442Z,35.40
2018-07-26T08:30:34.233Z,35.70
2018-07-26T08:33:02.103Z,35.80
2018-07-26T08:35:29.945Z,36.00
2018-07-26T08:37:57.894Z,35.50
2018-07-26T08:40:25.685Z,35.50
2018-07-26T08:42:53.854Z,35.10
2018-07-26T08:45:21.639Z,34.90
2018-07-26T08:47:49.349Z,34.50
2018-07-26T08:50:17.207Z,33.90
2018-07-26T08:52:45.088Z,33.40
2018-07-26T08:55:12.908Z,33.20
2018-07-26T08:57:40.655Z,32.20
2018-07-26T09:00:08.791Z,31.70
2018-07-26T09:02:36.586Z,31.40
2018-07-26T09:07:32.998Z,30.90
2018-07-26T09:10:00.916Z,30.80
2018-07-26T09:12:28.582Z,30.70
2018-07-26T09:14:56.402Z,30.00
2018-07-26T09:17:24.434Z,29.90
2018-07-26T09:19:52.388Z,29.90
2018-07-26T09:22:20.166Z,29.50
2018-07-26T09:24:47.981Z,29.30
2018-07-26T09:27:15.806Z,29.50
2018-07-26T09:29:43.530Z,29.40
2018-07-26T09:32:11.559Z,29.40
2018-07-26T09:34:39.410Z,29.20
2018-07-26T09:37:07.181Z,28.90
2018-07-26T09:39:34.950Z,28.70
2018-07-26T09:42:02.774Z,28.30
2018-07-26T09:44:30.560Z,28.60
2018-07-26T09:46:58.409Z,28.60
2018-07-26T09:49:26.236Z,28.30
2018-07-26T09:51:54.125Z,28.10
2018-07-26T09:54:21.902Z,27.70
2018-07-26T09:56:49.608Z,27.30
2018-07-26T09:59:17.480Z,27.40
2018-07-26T10:01:45.360Z,28.10
2018-07-26T10:04:13.066Z,27.40
2018-07-26T10:06:40.865Z,27.30
2018-07-26T10:09:10.393Z,26.70
2018-07-26T10:11:38.250Z,26.70
2018-07-26T10:14:06.188Z,26.60
2018-07-26T10:16:34.230Z,26.20
2018-07-26T10:19:02.026Z,26.10
2018-07-26T10:21:29.931Z,25.70
2018-07-26T10:23:57.765Z,25.60
2018-07-26T10:26:25.608Z,25.50
2018-07-26T10:28:53.374Z,25.60
2018-07-26T10:31:21.341Z,26.10
2018-07-26T10:33:49.146Z,26.50
2018-07-26T10:36:16.962Z,26.20
2018-07-26T10:38:44.750Z,26.00
2018-07-26T10:41:12.455Z,26.10
2018-07-26T10:43:40.214Z,25.60
2018-07-26T10:46:07.969Z,25.80
2018-07-26T10:48:35.726Z,25.70
2018-07-26T10:51:03.562Z,25.90
2018-07-26T10:53:31.326Z,26.30
2018-07-26T10:55:59.062Z,26.30
2018-07-26T10:58:26.859Z,26.20
2018-07-26T11:03:27.385Z,26.60
2018-07-26T11:05:55.194Z,26.50
2018-07-26T11:08:39.337Z,26.80
2018-07-26T11:11:26.614Z,26.80
2018-07-26T11:13:54.363Z,26.90
2018-07-26T11:16:22.195Z,26.70
2018-07-26T11:18:50.015Z,26.30
2018-07-26T11:21:17.765Z,26.50
2018-07-26T11:23:45.538Z,26.30
2018-07-26T11:26:13.494Z,26.30
2018-07-26T11:28:41.350Z,27.00
2018-07-26T11:37:40.137Z,27.30
2018-07-26T11:40:07.943Z,27.30
2018-07-26T11:42:35.738Z,27.60
2018-07-26T11:45:04.524Z,27.50
2018-07-26T11:47:32.290Z,27.80
2018-07-26T11:50:00.101Z,28.40
2018-07-26T11:54:55.772Z,29.00
2018-07-26T11:57:23.518Z,28.70
2018-07-26T11:59:51.405Z,28.30
2018-07-26T12:02:19.286Z,28.00
2018-07-26T12:04:47.133Z,28.20
2018-07-26T12:07:15.014Z,28.10
2018-07-26T12:09:42.818Z,28.20
2018-07-26T12:12:11.337Z,27.90
2018-07-26T12:14:39.830Z,27.50
2018-07-26T12:17:07.570Z,27.30
2018-07-26T12:19:35.432Z,27.10
2018-07-26T12:22:03.167Z,27.00
2018-07-26T12:24:31.077Z,26.50
2018-07-26T12:26:58.907Z,26.60
2018-07-26T12:29:26.765Z,26.50
2018-07-26T12:31:54.568Z,25.80
2018-07-26T12:34:22.343Z,25.70
2018-07-26T12:36:50.158Z,25.40
2018-07-26T12:39:17.947Z,24.90
2018-07-26T12:41:45.719Z,24.40
2018-07-26T12:44:13.480Z,24.20
2018-07-26T12:46:41.267Z,24.10
2018-07-26T12:49:09.077Z,24.50
2018-07-26T12:51:36.949Z,25.30
2018-07-26T12:54:04.855Z,26.00
2018-07-26T12:56:32.675Z,26.30
2018-07-26T12:59:00.450Z,26.60
2018-07-26T13:01:28.227Z,26.80
2018-07-26T13:03:56.708Z,27.10
2018-07-26T13:06:24.500Z,28.10
2018-07-26T13:08:52.730Z,28.90
2018-07-26T13:11:20.548Z,29.00
2018-07-26T13:13:48.323Z,28.90
2018-07-26T13:16:16.437Z,28.50
2018-07-26T13:18:44.242Z,28.10
2018-07-26T13:21:12.182Z,27.60
2018-07-26T13:23:40.007Z,27.20
2018-07-26T13:26:07.789Z,26.70
2018-07-26T13:28:35.563Z,26.20
2018-07-26T13:31:03.387Z,26.30
2018-07-26T13:33:31.180Z,26.70
2018-07-26T13:35:58.993Z,27.00
2018-07-26T13:38:26.870Z,27.50
2018-07-26T13:40:54.793Z,27.30
2018-07-26T13:43:22.661Z,27.80
2018-07-26T13:45:50.505Z,27.30
2018-07-26T13:48:18.427Z,27.50
2018-07-26T13:50:46.205Z,27.20
2018-07-26T13:53:14.181Z,27.40
2018-07-26T13:55:42.061Z,26.80
2018-07-26T13:58:10.003Z,26.50
2018-07-26T14:00:37.883Z,26.20
2018-07-26T14:03:05.751Z,26.20
2018-07-26T14:05:33.602Z,26.20
2018-07-26T14:08:01.431Z,26.00
2018-07-26T14:10:29.263Z,25.70
2018-07-26T14:12:57.138Z,25.50
2018-07-26T14:15:24.961Z,25.30
2018-07-26T14:17:52.821Z,25.40
2018-07-26T14:20:27.162Z,25.70
2018-07-26T14:22:54.923Z,25.60
2018-07-26T14:25:22.758Z,25.40
2018-07-26T14:27:58.211Z,25.40
2018-07-26T14:30:26.052Z,25.60
2018-07-26T14:32:53.848Z,25.90
2018-07-26T14:35:21.633Z,25.50
2018-07-26T14:37:49.467Z,25.50
2018-07-26T14:40:17.346Z,25.00
2018-07-26T14:42:45.165Z,25.00
2018-07-26T14:45:13.039Z,24.80
2018-07-26T14:47:40.826Z,24.60
2018-07-26T14:50:08.668Z,24.40
2018-07-26T14:52:36.415Z,24.30
2018-07-26T14:55:04.334Z,23.40
2018-07-26T14:57:32.098Z,23.30
2018-07-26T14:59:59.888Z,23.50
2018-07-26T15:02:27.748Z,23.50
2018-07-26T15:04:55.582Z,24.00
2018-07-26T15:07:23.439Z,24.30
2018-07-26T15:09:51.340Z,24.80
2018-07-26T15:12:19.056Z,24.80
2018-07-26T15:14:46.817Z,24.50
2018-07-26T15:17:14.641Z,24.20
2018-07-26T15:19:42.422Z,23.90
2018-07-26T15:22:10.357Z,24.00
2018-07-26T15:24:38.246Z,24.10
2018-07-26T15:27:06.140Z,24.10
2018-07-26T15:29:33.977Z,24.10
2018-07-26T15:32:01.725Z,23.70
2018-07-26T15:34:29.459Z,24.00
2018-07-26T15:36:57.246Z,23.80
2018-07-26T15:39:25.001Z,24.00
2018-07-26T15:41:52.940Z,24.30
2018-07-26T15:44:20.857Z,24.90
2018-07-26T15:46:48.717Z,25.10
2018-07-26T15:49:16.523Z,24.80
2018-07-26T15:51:44.343Z,24.60
2018-07-26T15:54:12.151Z,24.50
2018-07-26T15:56:39.881Z,24.10
2018-07-26T15:59:07.667Z,24.10
2018-07-26T16:01:35.485Z,23.90
2018-07-26T16:04:03.363Z,24.10
2018-07-26T16:06:31.178Z,24.30
2018-07-26T16:08:59.001Z,24.30
2018-07-26T16:11:26.826Z,24.50
2018-07-26T16:13:54.643Z,24.90
2018-07-26T16:16:22.536Z,25.30
2018-07-26T16:18:50.448Z,25.50
2018-07-26T16:21:18.343Z,25.60
2018-07-26T16:23:46.296Z,25.80
2018-07-26T16:26:14.203Z,26.00
2018-07-26T16:28:42.109Z,25.80
2018-07-26T16:31:09.934Z,25.80
2018-07-26T16:33:37.847Z,25.80
2018-07-26T16:36:05.635Z,25.80
2018-07-26T16:38:33.497Z,25.70
2018-07-26T16:41:01.285Z,25.80
2018-07-26T16:43:29.151Z,26.10
2018-07-26T16:45:56.981Z,26.40
2018-07-26T16:48:24.796Z,26.70
2018-07-26T16:50:55.650Z,26.90
2018-07-26T16:53:23.499Z,27.00
2018-07-26T16:55:51.362Z,27.00
2018-07-26T16:58:19.270Z,27.20
2018-07-26T17:00:47.113Z,27.90
2018-07-26T17:03:15.080Z,27.60
2018-07-26T17:05:42.940Z,27.80
2018-07-26T17:08:10.954Z,28.00
2018-07-26T17:10:38.900Z,28.30
2018-07-26T17:13:06.814Z,28.50
2018-07-26T17:15:34.739Z,28.70
2018-07-26T17:18:02.653Z,29.00
2018-07-26T17:20:30.413Z,29.40
2018-07-26T17:22:58.294Z,29.30
2018-07-26T17:25:26.148Z,29.40
2018-07-26T17:27:55.278Z,29.60
2018-07-26T17:30:23.247Z,29.70
2018-07-26T17:32:51.180Z,29.80
2018-07-26T17:35:19.309Z,29.90
2018-07-26T17:37:47.143Z,30.10
2018-07-26T17:40:15.046Z,30.30
2018-07-26T17:42:42.885Z,30.40
2018-07-26T17:45:11.417Z,30.60
2018-07-26T17:47:39.709Z,30.70
2018-07-26T17:50:09.138Z,30.80
2018-07-26T17:52:36.965Z,31.00
2018-07-26T17:55:05.198Z,31.10
2018-07-26T17:57:33.033Z,31.20
2018-07-26T18:00:00.939Z,31.40
2018-07-26T18:02:28.773Z,31.60
2018-07-26T18:04:56.567Z,31.80
2018-07-26T18:07:24.445Z,32.00
2018-07-26T18:09:52.425Z,32.20
2018-07-26T18:12:20.646Z,32.50
2018-07-26T18:14:48.538Z,32.80
2018-07-26T18:17:16.352Z,33.00
2018-07-26T18:19:44.214Z,33.20
2018-07-26T18:22:11.977Z,33.50
2018-07-26T18:24:39.752Z,33.80
2018-07-26T18:27:07.657Z,34.00
2018-07-26T18:29:35.659Z,34.50
2018-07-26T18:32:03.649Z,34.70
2018-07-26T18:34:31.415Z,34.90
2018-07-26T18:36:59.226Z,35.40
2018-07-26T18:39:27.074Z,36.00
2018-07-26T18:41:54.903Z,36.60
2018-07-26T18:44:22.685Z,37.00
2018-07-26T18:46:50.423Z,37.50
2018-07-26T18:49:18.311Z,37.80
2018-07-26T18:51:46.121Z,38.20
2018-07-26T18:54:13.969Z,38.70
2018-07-26T18:59:09.610Z,39.60
2018-07-26T19:01:37.382Z,40.10
2018-07-26T19:04:05.228Z,40.70
2018-07-26T19:06:33.046Z,41.40
2018-07-26T19:09:00.960Z,42.00
2018-07-26T19:11:28.865Z,42.60
2018-07-26T19:13:56.783Z,43.10
2018-07-26T19:16:24.577Z,43.30
2018-07-26T19:18:52.383Z,43.90
2018-07-26T19:21:20.222Z,44.30
2018-07-26T19:23:48.121Z,44.70
2018-07-26T19:26:15.851Z,45.00
2018-07-26T19:28:43.691Z,45.30
2018-07-26T19:31:11.518Z,45.80
2018-07-26T19:33:39.393Z,46.30
2018-07-26T19:36:07.314Z,46.70
2018-07-26T19:38:35.221Z,47.10
2018-07-26T19:41:03.119Z,47.50
2018-07-26T19:43:30.947Z,47.90
2018-07-26T19:45:58.819Z,48.00
2018-07-26T19:48:32.971Z,48.20
2018-07-26T19:51:01.099Z,48.60
2018-07-26T19:53:28.944Z,49.20
2018-07-26T19:55:56.834Z,49.10
2018-07-26T19:58:24.720Z,49.80
2018-07-26T20:00:52.606Z,49.40
2018-07-26T20:03:20.461Z,49.40
2018-07-26T20:05:48.344Z,49.60
2018-07-26T20:08:16.122Z,49.90
2018-07-26T20:10:44.039Z,50.10
2018-07-26T20:13:11.895Z,50.30
2018-07-26T20:15:39.787Z,50.60
2018-07-26T20:18:07.659Z,50.70
2018-07-26T20:20:35.499Z,50.90
2018-07-26T20:23:03.374Z,51.10
2018-07-26T20:25:31.259Z,51.10
2018-07-26T20:27:59.158Z,51.20
2018-07-26T20:30:26.962Z,51.40
2018-07-26T20:32:54.836Z,51.50
2018-07-26T20:35:22.742Z,51.70
2018-07-26T20:37:50.609Z,52.00
2018-07-26T20:40:18.370Z,52.10
2018-07-26T20:42:46.247Z,52.00
2018-07-26T20:45:14.151Z,52.20
2018-07-26T20:47:42.012Z,52.20
2018-07-26T20:50:09.889Z,52.40
2018-07-26T20:52:38.082Z,52.40
2018-07-26T20:55:05.981Z,52.50
2018-07-26T20:57:33.797Z,52.40
2018-07-26T21:00:01.893Z,52.50
2018-07-26T21:02:29.766Z,52.40
2018-07-26T21:05:24.073Z,52.50
2018-07-26T21:07:51.877Z,52.60
2018-07-26T21:10:19.772Z,52.80
2018-07-26T21:12:47.740Z,53.10
2018-07-26T21:15:15.671Z,53.20
2018-07-26T21:17:43.516Z,53.30
2018-07-26T21:20:11.473Z,53.50
2018-07-26T21:22:47.898Z,53.70
2018-07-26T21:25:22.880Z,53.90
2018-07-26T21:28:09.778Z,53.90
2018-07-26T21:30:37.614Z,53.90
2018-07-26T21:33:05.504Z,54.10
2018-07-26T21:35:33.285Z,54.20
2018-07-26T21:41:03.366Z,54.40
2018-07-26T21:43:31.178Z,54.50
2018-07-26T21:45:59.009Z,54.50
2018-07-26T21:48:26.918Z,54.60
2018-07-26T21:50:54.756Z,54.80
2018-07-26T21:53:26.197Z,55.10
2018-07-26T21:59:00.081Z,55.70
2018-07-26T22:01:27.975Z,56.00
2018-07-26T22:03:55.851Z,56.10
2018-07-26T22:06:23.726Z,56.40
2018-07-26T22:08:51.609Z,56.60
2018-07-26T22:14:31.101Z,56.70
2018-07-26T22:16:58.947Z,57.00
2018-07-26T22:19:26.827Z,57.00
2018-07-26T22:21:54.723Z,56.90
2018-07-26T22:24:22.536Z,56.90
2018-07-26T22:26:50.349Z,57.10
2018-07-26T22:29:18.271Z,57.40
2018-07-26T22:31:46.165Z,57.50
2018-07-26T22:34:14.018Z,57.60
2018-07-26T22:36:41.873Z,57.80
2018-07-26T22:39:10.757Z,58.90
2018-07-26T22:41:38.766Z,58.70
2018-07-26T22:44:06.674Z,59.00
2018-07-26T22:46:34.503Z,59.20
2018-07-26T22:49:02.386Z,59.30
2018-07-26T22:51:30.298Z,59.50
2018-07-26T22:53:58.241Z,59.60
2018-07-26T22:56:26.041Z,59.70
2018-07-26T22:58:53.937Z,59.90
2018-07-26T23:01:21.784Z,60.10
2018-07-26T23:03:49.638Z,60.20
2018-07-26T23:06:17.547Z,60.30
2018-07-26T23:08:45.686Z,60.60
2018-07-26T23:11:13.757Z,61.10
2018-07-26T23:13:41.637Z,61.60
2018-07-26T23:16:09.530Z,62.00
2018-07-26T23:18:37.399Z,62.40
2018-07-26T23:21:05.469Z,62.60
2018-07-26T23:23:33.243Z,62.70
2018-07-26T23:26:01.091Z,63.10
2018-07-26T23:28:28.950Z,63.90
2018-07-26T23:30:56.829Z,63.20
2018-07-26T23:33:24.706Z,63.70
2018-07-26T23:35:53.361Z,64.00
2018-07-26T23:38:21.225Z,63.90
2018-07-26T23:40:49.073Z,64.30
2018-07-26T23:45:44.739Z,64.30
2018-07-26T23:48:12.529Z,64.60
2018-07-26T23:50:40.434Z,64.50
2018-07-26T23:53:08.296Z,64.50
2018-07-26T23:55:36.135Z,64.60
2018-07-26T23:58:04.054Z,65.60
